Time;durP1;ratioP1;P1;durP2;ratioP2;P2;SDS_P1;SDS_P2;PMS_P1;PMS_P2;Temp;Humidity;BMP_temperature;BMP_pressure;BME280_temperature;BME280_humidity;BME280_pressure;Samples;Min_cycle;Max_cycle;Signal;HPM_P1;HPM_P2
2022/11/30 00:02:15;;;;;;;118.37;53.67;;;;;;;6.15;100.00;102084.72;5285084;28;20121;-70
2022/11/30 00:04:46;;;;;;;105.30;54.13;;;;;;;6.14;100.00;102083.00;5285494;28;20071;-72
2022/11/30 00:07:18;;;;;;;105.07;54.27;;;;;;;6.20;100.00;102075.38;5284878;28;20115;-72
2022/11/30 00:09:49;;;;;;;113.73;56.07;;;;;;;6.24;100.00;102089.28;5285483;28;20028;-71
2022/11/30 00:12:21;;;;;;;108.73;53.40;;;;;;;6.19;100.00;102084.84;5266924;28;20032;-70
2022/11/30 00:14:52;;;;;;;118.07;56.83;;;;;;;6.17;100.00;102086.53;5285306;28;20032;-71
2022/11/30 00:17:23;;;;;;;102.70;54.90;;;;;;;6.22;100.00;102093.56;5285585;28;20032;-72
2022/11/30 00:19:55;;;;;;;111.97;53.03;;;;;;;6.22;100.00;102085.78;5286149;28;20552;-71
2022/11/30 00:22:26;;;;;;;110.13;52.87;;;;;;;6.24;100.00;102091.88;5286566;28;20025;-71
2022/11/30 00:24:59;;;;;;;103.80;52.97;;;;;;;6.24;100.00;102087.56;5267895;28;20036;-72
2022/11/30 00:27:31;;;;;;;111.38;54.22;;;;;;;6.19;100.00;102090.03;5266547;28;20024;-72
2022/11/30 00:30:04;;;;;;;110.50;51.92;;;;;;;6.23;100.00;102088.41;5283421;28;20099;-73
2022/11/30 00:32:35;;;;;;;105.50;54.65;;;;;;;6.24;100.00;102089.28;5284256;28;20032;-72
2022/11/30 00:35:07;;;;;;;116.47;55.37;;;;;;;6.23;100.00;102090.09;5284099;28;20112;-71
2022/11/30 00:37:38;;;;;;;104.40;53.90;;;;;;;6.25;100.00;102084.16;5266130;28;20048;-72
2022/11/30 00:40:10;;;;;;;108.53;52.60;;;;;;;6.23;100.00;102088.41;5284225;28;20422;-72
2022/11/30 00:42:41;;;;;;;99.07;51.93;;;;;;;6.23;100.00;102092.69;5266832;28;20482;-73
2022/11/30 00:45:13;;;;;;;104.33;51.73;;;;;;;6.27;100.00;102094.53;5266277;28;20033;-71
2022/11/30 00:47:44;;;;;;;115.10;51.70;;;;;;;6.24;100.00;102097.06;5284269;28;20043;-71
2022/11/30 00:50:15;;;;;;;103.47;52.97;;;;;;;6.24;100.00;102094.47;5283922;28;20067;-72
2022/11/30 00:52:47;;;;;;;117.37;53.33;;;;;;;6.22;100.00;102099.59;5283940;28;20116;-72
2022/11/30 00:55:18;;;;;;;102.23;52.33;;;;;;;6.22;100.00;102096.16;5283632;28;20040;-72
2022/11/30 00:57:49;;;;;;;117.13;55.00;;;;;;;6.23;100.00;102098.78;5283779;28;20036;-72
2022/11/30 01:00:20;;;;;;;98.30;51.03;;;;;;;6.23;100.00;102090.09;5265936;28;20387;-71
2022/11/30 01:02:56;;;;;;;105.63;49.90;;;;;;;6.24;100.00;102097.91;5284123;28;20058;-72
2022/11/30 01:05:28;;;;;;;96.60;47.53;;;;;;;6.22;100.00;102099.59;5283912;28;20044;-72
2022/11/30 01:08:01;;;;;;;96.73;48.93;;;;;;;6.24;100.00;102103.09;5283493;28;20082;-72
2022/11/30 01:10:34;;;;;;;100.35;49.38;;;;;;;6.26;100.00;102101.41;5283394;28;20035;-72
2022/11/30 01:13:06;;;;;;;88.90;47.88;;;;;;;6.25;100.00;102109.13;5283759;28;20442;-72
2022/11/30 01:15:40;;;;;;;84.38;45.42;;;;;;;6.25;100.00;102109.13;5283670;28;20020;-72
2022/11/30 01:18:12;;;;;;;93.63;47.00;;;;;;;6.25;100.00;102101.38;5283523;28;20077;-72
2022/11/30 01:20:43;;;;;;;88.30;46.10;;;;;;;6.26;100.00;102096.25;5283787;28;20028;-71
2022/11/30 01:23:15;;;;;;;94.03;46.90;;;;;;;6.23;100.00;102101.38;5265833;28;20037;-71
2022/11/30 01:25:54;;;;;;;83.83;44.77;;;;;;;6.23;100.00;102105.66;5265730;28;20379;-73
2022/11/30 01:28:25;;;;;;;83.70;44.30;;;;;;;6.25;100.00;102103.97;5283780;28;20039;-72
2022/11/30 01:31:02;;;;;;;84.50;44.13;;;;;;;6.24;100.00;102103.09;5283521;28;20024;-72
2022/11/30 01:33:34;;;;;;;76.82;43.58;;;;;;;6.26;100.00;102105.72;5283185;28;20507;-73
2022/11/30 01:36:15;;;;;;;85.10;43.03;;;;;;;6.26;100.00;102105.72;5283538;28;20029;-73
2022/11/30 01:38:49;;;;;;;80.00;41.60;;;;;;;6.23;100.00;102100.47;5282230;28;20107;-72
2022/11/30 01:41:30;;;;;;;83.70;42.08;;;;;;;6.19;100.00;102105.56;5284642;28;20087;-71
2022/11/30 01:44:04;;;;;;;72.45;41.88;;;;;;;6.26;100.00;102098.81;5288877;28;20046;-72
2022/11/30 01:46:47;;;;;;;82.63;42.10;;;;;;;6.23;100.00;102106.53;5288239;28;20521;-71
2022/11/30 01:49:27;;;;;;;91.50;43.28;;;;;;;6.22;100.00;102109.09;5287840;28;20037;-71
2022/11/30 01:52:06;;;;;;;79.13;41.22;;;;;;;6.17;100.00;102102.06;5287769;28;20079;-73
2022/11/30 01:54:50;;;;;;;81.43;41.13;;;;;;;6.15;100.00;102106.34;5288276;28;20386;-72
2022/11/30 01:57:30;;;;;;;76.55;40.45;;;;;;;6.15;100.00;102119.28;5287890;28;20111;-72
2022/11/30 02:00:06;;;;;;;76.20;40.78;;;;;;;6.15;100.00;102119.28;5287078;28;20518;-72
2022/11/30 02:02:46;;;;;;;81.93;41.42;;;;;;;6.17;100.00;102121.91;5287135;28;20031;-73
2022/11/30 02:05:19;;;;;;;74.30;39.30;;;;;;;6.20;100.00;102122.84;5287084;28;20024;-71
2022/11/30 02:07:50;;;;;;;;;;;;;;;6.24;100.00;102120.34;5287540;28;20486;-71
2022/11/30 02:10:26;;;;;;;76.03;39.38;;;;;;;6.25;100.00;102117.81;5287334;28;19960;-70
2022/11/30 02:13:19;;;;;;;68.85;37.22;;;;;;;6.18;100.00;102118.47;5286623;28;20044;-72
2022/11/30 02:16:13;;;;;;;72.05;36.15;;;;;;;6.28;100.00;102120.47;5286797;28;20489;-71
2022/11/30 02:19:23;;;;;;;64.30;38.05;;;;;;;6.27;100.00;102123.91;5286269;28;20033;-71
2022/11/30 02:22:21;;;;;;;64.20;36.17;;;;;;;6.27;100.00;102117.84;5285777;28;20036;-71
2022/11/30 02:25:30;;;;;;;65.15;36.55;;;;;;;6.28;100.00;102115.31;5286462;28;20025;-70
2022/11/30 02:28:23;;;;;;;62.63;35.38;;;;;;;6.26;100.00;102123.84;5285941;28;20028;-71
2022/11/30 02:30:58;;;;;;;62.75;33.63;;;;;;;6.25;100.00;102119.50;5286103;28;20029;-71
2022/11/30 02:33:32;;;;;;;60.42;33.13;;;;;;;6.26;100.00;102131.63;5285786;28;20029;-71
2022/11/30 02:36:06;;;;;;;58.42;33.55;;;;;;;6.32;100.00;102121.44;5285605;28;20136;-73
2022/11/30 02:38:39;;;;;;;58.17;33.10;;;;;;;6.29;100.00;102127.41;5285724;28;20029;-72
2022/11/30 02:41:10;;;;;;;57.80;33.70;;;;;;;6.30;100.00;102117.94;5283697;28;20060;-71
2022/11/30 02:43:42;;;;;;;53.33;33.67;;;;;;;6.23;100.00;102127.25;5285762;28;20475;-72
2022/11/30 02:46:22;;;;;;;57.13;32.40;;;;;;;6.23;100.00;102126.34;5285567;28;20028;-72
2022/11/30 02:49:30;;;;;;;53.08;30.50;;;;;;;6.24;100.00;102130.72;5285547;28;20064;-72
2022/11/30 02:52:05;;;;;;;47.17;30.58;;;;;;;6.21;100.00;102134.09;5285918;28;20466;-72
2022/11/30 02:54:37;;;;;;;51.22;31.70;;;;;;;6.24;100.00;102129.00;5284696;28;20024;-72
2022/11/30 02:57:09;;;;;;;49.63;31.53;;;;;;;6.24;100.00;102128.13;5285402;28;20512;-71
2022/11/30 02:59:41;;;;;;;51.03;31.65;;;;;;;6.26;100.00;102132.50;5285401;28;20033;-72
2022/11/30 03:02:12;;;;;;;47.03;31.77;;;;;;;6.25;100.00;102138.53;5285270;28;20033;-71
2022/11/30 03:04:44;;;;;;;48.43;31.50;;;;;;;6.23;100.00;102134.13;5285191;28;20111;-72
2022/11/30 03:07:15;;;;;;;42.70;28.53;;;;;;;6.26;100.00;102134.22;5285130;28;20036;-72
2022/11/30 03:09:46;;;;;;;44.90;29.20;;;;;;;6.20;100.00;102128.03;5285090;28;20025;-72
2022/11/30 03:12:18;;;;;;;42.50;26.57;;;;;;;6.20;100.00;102138.41;5284653;28;20094;-71
2022/11/30 03:14:49;;;;;;;44.10;26.57;;;;;;;6.13;100.00;102133.88;5285267;28;20020;-71
2022/11/30 03:17:20;;;;;;;47.40;27.07;;;;;;;6.08;100.00;102132.88;5284436;28;20033;-71
2022/11/30 03:19:52;;;;;;;47.53;29.87;;;;;;;6.17;100.00;102138.31;5284435;28;20035;-72
2022/11/30 03:22:23;;;;;;;42.13;28.13;;;;;;;6.15;100.00;102134.81;5284690;28;20058;-72
2022/11/30 03:24:55;;;;;;;41.37;28.03;;;;;;;6.11;100.00;102135.56;5284600;28;20021;-72
2022/11/30 03:27:26;;;;;;;38.57;26.17;;;;;;;6.13;100.00;102128.69;5284943;28;20122;-72
2022/11/30 03:29:57;;;;;;;43.60;29.33;;;;;;;6.12;100.00;102134.72;5285152;28;20418;-72
2022/11/30 03:32:29;;;;;;;39.17;27.90;;;;;;;6.09;100.00;102138.94;5284412;28;20044;-72
2022/11/30 03:35:01;;;;;;;37.95;27.15;;;;;;;6.14;100.00;102138.22;5266753;28;20024;-71
2022/11/30 03:37:32;;;;;;;39.00;26.33;;;;;;;6.08;100.00;102138.06;5284593;28;20055;-72
2022/11/30 03:40:04;;;;;;;46.10;28.50;;;;;;;6.02;100.00;102141.38;5284365;28;20064;-72
2022/11/30 03:42:36;;;;;;;39.08;26.60;;;;;;;6.00;100.00;102135.25;5284796;28;20337;-72
2022/11/30 03:45:08;;;;;;;42.07;27.07;;;;;;;5.98;100.00;102136.91;5284699;28;20056;-71
2022/11/30 03:47:39;;;;;;;43.87;27.87;;;;;;;5.93;100.00;102132.44;5284866;28;20087;-72
2022/11/30 03:50:10;;;;;;;40.67;25.63;;;;;;;5.97;100.00;102134.28;5284451;28;20033;-72
2022/11/30 03:52:42;;;;;;;39.00;26.50;;;;;;;5.95;100.00;102130.75;5284739;28;20025;-71
2022/11/30 03:55:13;;;;;;;41.20;27.40;;;;;;;5.93;100.00;102140.19;5266110;28;20113;-71
2022/11/30 03:57:45;;;;;;;36.33;26.17;;;;;;;5.96;100.00;102146.38;5265991;28;20028;-71
2022/11/30 04:00:17;;;;;;;36.93;26.30;;;;;;;5.96;100.00;102145.47;5284313;28;20032;-71
2022/11/30 04:02:48;;;;;;;39.08;26.27;;;;;;;5.99;100.00;102141.28;5284026;28;20130;-72
2022/11/30 04:05:21;;;;;;;38.13;27.20;;;;;;;6.01;100.00;102146.50;5283991;28;20056;-72
2022/11/30 04:07:52;;;;;;;37.40;26.33;;;;;;;6.02;100.00;102145.63;5284045;28;20107;-72
2022/11/30 04:10:24;;;;;;;43.37;27.30;;;;;;;6.02;100.00;102143.06;5283941;28;20401;-71
2022/11/30 04:12:55;;;;;;;41.30;26.00;;;;;;;6.02;100.00;102140.47;5266162;28;20036;-72
2022/11/30 04:15:27;;;;;;;40.83;26.77;;;;;;;6.00;100.00;102132.66;5285158;28;20086;-72
2022/11/30 04:17:58;;;;;;;34.67;25.97;;;;;;;5.98;100.00;102139.50;5284569;28;20036;-72
2022/11/30 04:20:29;;;;;;;37.83;26.67;;;;;;;5.91;100.00;102134.97;5284296;28;20033;-72
2022/11/30 04:23:01;;;;;;;38.47;26.13;;;;;;;5.96;100.00;102140.28;5283863;28;20044;-71
2022/11/30 04:25:32;;;;;;;40.53;26.33;;;;;;;5.95;100.00;102143.69;5284683;28;20028;-72
2022/11/30 04:28:04;;;;;;;42.50;28.47;;;;;;;5.91;100.00;102137.56;5283823;28;20048;-73
2022/11/30 04:30:36;;;;;;;40.63;27.73;;;;;;;5.94;100.00;102148.00;5284275;28;20032;-72
2022/11/30 04:33:07;;;;;;;36.45;26.38;;;;;;;5.93;100.00;102140.19;5283591;28;20016;-71
2022/11/30 04:35:45;;;;;;;34.53;25.53;;;;;;;5.96;100.00;102145.47;5283739;28;20558;-71
2022/11/30 04:38:17;;;;;;;38.17;25.60;;;;;;;6.01;100.00;102146.50;5283702;28;20107;-71
2022/11/30 04:40:49;;;;;;;39.07;28.80;;;;;;;5.96;100.00;102150.66;5283416;28;20052;-71
2022/11/30 04:43:20;;;;;;;35.50;26.27;;;;;;;5.99;100.00;102146.47;5283429;28;20060;-72
2022/11/30 04:45:52;;;;;;;38.90;25.83;;;;;;;5.97;100.00;102142.06;5283304;28;20024;-72
2022/11/30 04:48:23;;;;;;;39.17;27.00;;;;;;;5.96;100.00;102148.06;5265638;28;20044;-71
2022/11/30 04:51:07;;;;;;;34.70;26.23;;;;;;;6.00;100.00;102155.09;5283893;28;20367;-71
2022/11/30 04:53:39;;;;;;;35.40;25.77;;;;;;;5.98;100.00;102162.81;5266190;28;20035;-71
2022/11/30 04:56:11;;;;;;;38.20;26.80;;;;;;;5.99;100.00;102150.75;5283504;28;20032;-71
2022/11/30 04:58:42;;;;;;;36.37;26.73;;;;;;;5.94;100.00;102147.09;5283410;28;20554;-73
2022/11/30 05:01:13;;;;;;;41.33;27.43;;;;;;;5.86;100.00;102144.34;5283278;28;20120;-72
2022/11/30 05:03:45;;;;;;;38.90;25.60;;;;;;;5.83;100.00;102142.53;5283396;28;20091;-72
2022/11/30 05:06:16;;;;;;;38.07;25.53;;;;;;;5.79;100.00;102151.00;5283260;28;20376;-72
2022/11/30 05:08:48;;;;;;;37.70;26.63;;;;;;;5.73;100.00;102144.78;5283997;28;20060;-73
2022/11/30 05:11:19;;;;;;;44.47;28.00;;;;;;;5.71;100.00;102149.06;5283062;28;20498;-72
2022/11/30 05:13:50;;;;;;;37.80;26.70;;;;;;;5.71;100.00;102154.22;5283384;28;20024;-71
2022/11/30 05:16:22;;;;;;;38.50;25.67;;;;;;;5.66;100.00;102159.25;5265927;28;20063;-71
2022/11/30 05:18:53;;;;;;;40.20;27.43;;;;;;;5.64;100.00;102148.88;5283223;28;20040;-73
2022/11/30 05:21:24;;;;;;;36.97;25.17;;;;;;;5.62;100.00;102153.13;5283211;28;20029;-72
2022/11/30 05:23:56;;;;;;;38.73;26.70;;;;;;;5.64;100.00;102161.81;5283160;28;20032;-73
2022/11/30 05:26:27;;;;;;;37.30;26.10;;;;;;;5.61;100.00;102166.00;5282947;28;20053;-74
2022/11/30 05:28:58;;;;;;;34.33;25.00;;;;;;;5.60;100.00;102165.16;5283277;28;20033;-73
2022/11/30 05:31:31;;;;;;;37.30;27.17;;;;;;;5.56;100.00;102165.88;5287375;28;20521;-72
2022/11/30 05:34:02;;;;;;;38.28;26.25;;;;;;;5.51;100.00;102161.41;5293226;28;20032;-73
2022/11/30 05:36:33;;;;;;;33.83;25.53;;;;;;;5.47;100.00;102160.41;5265551;28;20036;-74
2022/11/30 05:39:05;;;;;;;35.87;24.50;;;;;;;5.43;100.00;102162.03;5283145;28;20028;-72
2022/11/30 05:41:36;;;;;;;34.07;26.03;;;;;;;5.43;100.00;102164.63;5283310;28;20138;-73
2022/11/30 05:44:08;;;;;;;34.60;25.73;;;;;;;5.43;100.00;102169.78;5283073;28;20024;-73
2022/11/30 05:46:40;;;;;;;35.87;24.03;;;;;;;5.44;100.00;102174.16;5264980;28;20174;-73
2022/11/30 05:49:11;;;;;;;38.10;27.43;;;;;;;5.44;100.00;102168.06;5282804;28;20024;-72
2022/11/30 05:51:42;;;;;;;38.90;27.67;;;;;;;5.44;100.00;102176.72;5282903;28;20063;-73
2022/11/30 05:54:14;;;;;;;46.80;28.77;;;;;;;5.43;100.00;102179.28;5265821;28;20060;-73
2022/11/30 05:56:45;;;;;;;41.37;27.60;;;;;;;5.43;100.00;102187.03;5283224;28;20021;-73
2022/11/30 05:59:16;;;;;;;45.20;30.97;;;;;;;5.44;100.00;102188.75;5264820;28;20423;-73
2022/11/30 06:01:50;;;;;;;44.47;29.03;;;;;;;5.48;100.00;102182.88;5282897;28;20040;-73
2022/11/30 06:04:21;;;;;;;44.60;28.52;;;;;;;5.50;100.00;102185.50;5282973;28;20021;-74
2022/11/30 06:06:54;;;;;;;41.53;28.43;;;;;;;5.53;100.00;102191.63;5282663;28;20020;-73
2022/11/30 06:09:25;;;;;;;45.33;31.70;;;;;;;5.55;100.00;102191.69;5282907;28;20355;-73
2022/11/30 06:11:57;;;;;;;45.73;29.27;;;;;;;5.53;100.00;102191.63;5282789;28;20024;-73
2022/11/30 06:14:28;;;;;;;49.20;31.43;;;;;;;5.52;100.00;102189.88;5282549;28;20028;-72
2022/11/30 06:16:59;;;;;;;48.13;28.87;;;;;;;5.50;100.00;102193.25;5264810;28;20029;-73
2022/11/30 06:19:31;;;;;;;39.93;27.93;;;;;;;5.51;100.00;102190.72;5283101;28;20032;-72
2022/11/30 06:22:02;;;;;;;49.63;29.83;;;;;;;5.49;100.00;102189.81;5265619;28;20021;-74
2022/11/30 06:24:33;;;;;;;43.27;28.13;;;;;;;5.53;100.00;102189.06;5284232;28;20107;-74
2022/11/30 06:27:05;;;;;;;45.67;29.27;;;;;;;5.49;100.00;102189.81;5285179;28;20367;-74
2022/11/30 06:29:36;;;;;;;46.23;29.30;;;;;;;5.47;100.00;102194.03;5285745;28;20028;-74
2022/11/30 06:32:08;;;;;;;48.63;29.33;;;;;;;5.50;100.00;102194.13;5288282;28;20367;-72
2022/11/30 06:34:39;;;;;;;44.97;30.07;;;;;;;5.47;100.00;102192.34;5269934;28;20459;-74
2022/11/30 06:37:11;;;;;;;43.13;29.23;;;;;;;5.51;100.00;102195.91;5286757;28;20047;-73
2022/11/30 06:39:42;;;;;;;49.67;30.00;;;;;;;5.47;100.00;102192.34;5267891;28;20053;-74
2022/11/30 06:42:13;;;;;;;48.13;30.30;;;;;;;5.50;100.00;102201.03;5286121;28;20036;-72
2022/11/30 06:44:45;;;;;;;50.33;30.70;;;;;;;5.50;100.00;102194.13;5286219;28;20460;-74
2022/11/30 06:47:16;;;;;;;41.63;28.10;;;;;;;5.47;100.00;102191.44;5286438;28;20486;-73
2022/11/30 06:49:48;;;;;;;46.83;31.23;;;;;;;5.47;100.00;102197.53;5286327;28;20037;-72
2022/11/30 06:52:19;;;;;;;45.80;30.17;;;;;;;5.46;100.00;102203.50;5285662;28;20111;-74
2022/11/30 06:54:51;;;;;;;43.70;29.27;;;;;;;5.46;100.00;102200.06;5285977;28;20320;-74
2022/11/30 06:57:29;;;;;;;44.83;27.63;;;;;;;5.50;100.00;102206.19;5268443;28;20086;-74
2022/11/30 07:00:01;;;;;;;45.72;29.33;;;;;;;5.54;100.00;102208.03;5267967;28;20116;-73
2022/11/30 07:02:33;;;;;;;46.53;29.93;;;;;;;5.51;100.00;102210.56;5286480;28;20107;-73
2022/11/30 07:05:05;;;;;;;45.80;29.50;;;;;;;5.49;100.00;102215.69;5285749;28;20036;-74
2022/11/30 07:07:36;;;;;;;42.73;29.40;;;;;;;5.57;100.00;102210.72;5267849;28;20255;-75
2022/11/30 07:10:08;;;;;;;46.77;30.17;;;;;;;5.54;100.00;102213.19;5267768;28;20071;-75
2022/11/30 07:12:39;;;;;;;50.40;31.43;;;;;;;5.51;100.00;102215.72;5286223;28;20028;-74
2022/11/30 07:15:10;;;;;;;47.40;30.93;;;;;;;5.50;100.00;102219.13;5285369;28;20025;-72
2022/11/30 07:17:42;;;;;;;46.00;31.30;;;;;;;5.52;100.00;102218.31;5285949;28;20029;-74
2022/11/30 07:20:13;;;;;;;50.53;29.87;;;;;;;5.52;100.00;102215.75;5285309;28;20176;-72
2022/11/30 07:22:45;;;;;;;43.33;29.73;;;;;;;5.50;100.00;102222.59;5285701;28;20070;-74
2022/11/30 07:28:07;;;;;;;44.08;30.80;;;;;;;5.54;100.00;102226.13;5285681;28;20032;-74
2022/11/30 07:30:38;;;;;;;;;;;;;;;5.59;100.00;102238.41;5251383;28;20074;-73
2022/11/30 07:33:10;;;;;;;47.95;31.25;;;;;;;5.53;100.00;102240.78;5285428;28;19955;-72
2022/11/30 07:35:41;;;;;;;47.30;30.83;;;;;;;5.54;100.00;102233.91;5285690;28;20048;-74
2022/11/30 07:38:12;;;;;;;47.67;29.63;;;;;;;5.54;100.00;102241.66;5267175;28;20043;-73
2022/11/30 07:40:44;;;;;;;40.53;28.30;;;;;;;5.60;100.00;102241.84;5285048;28;20052;-75
2022/11/30 07:43:16;;;;;;;44.67;30.23;;;;;;;5.65;100.00;102245.44;5285353;28;20031;-73
2022/11/30 07:45:52;;;;;;;47.97;30.58;;;;;;;5.63;100.00;102247.13;5267483;28;20078;-73
2022/11/30 07:48:23;;;;;;;47.85;30.20;;;;;;;5.65;100.00;102255.81;5284991;28;20032;-74
2022/11/30 07:51:04;;;;;;;47.53;29.87;;;;;;;5.66;100.00;102258.44;5285137;28;20032;-72
2022/11/30 07:53:36;;;;;;;43.55;30.73;;;;;;;5.64;100.00;102260.09;5285157;28;20029;-74
2022/11/30 07:56:14;;;;;;;42.40;31.43;;;;;;;5.71;100.00;102260.31;5284762;28;20526;-74
2022/11/30 07:58:46;;;;;;;45.65;30.25;;;;;;;5.72;100.00;102262.94;5284735;28;20023;-74
2022/11/30 08:01:21;;;;;;;45.63;30.27;;;;;;;5.77;100.00;102255.31;5285410;28;20021;-73
2022/11/30 08:03:53;;;;;;;47.20;30.08;;;;;;;5.74;100.00;102256.09;5284342;28;20025;-72
2022/11/30 08:06:29;;;;;;;44.33;30.50;;;;;;;5.76;100.00;102263.91;5285115;28;20059;-73
2022/11/30 08:09:02;;;;;;;39.97;29.33;;;;;;;5.86;100.00;102263.38;5284763;28;20731;-75
2022/11/30 08:11:34;;;;;;;42.00;31.13;;;;;;;5.85;100.00;102262.47;5284883;28;20037;-75
2022/11/30 08:14:06;;;;;;;45.03;30.85;;;;;;;5.90;100.00;102274.69;5285023;28;20020;-75
2022/11/30 08:16:37;;;;;;;42.00;28.43;;;;;;;5.88;100.00;102268.59;5267294;28;20033;-74
2022/11/30 08:19:09;;;;;;;44.23;30.13;;;;;;;5.90;100.00;102272.09;5285035;28;20363;-74
2022/11/30 08:21:40;;;;;;;40.20;30.17;;;;;;;5.99;100.00;102272.44;5285196;28;20020;-73
2022/11/30 08:24:12;;;;;;;40.67;29.67;;;;;;;5.99;100.00;102277.59;5284999;28;20056;-73
2022/11/30 08:26:44;;;;;;;39.90;28.55;;;;;;;6.02;100.00;102275.06;5284495;28;20028;-73
2022/11/30 08:29:15;;;;;;;43.47;29.37;;;;;;;6.02;100.00;102282.84;5284535;28;20112;-74
2022/11/30 08:31:46;;;;;;;39.93;28.60;;;;;;;6.08;100.00;102279.56;5284473;28;20029;-74
2022/11/30 08:34:18;;;;;;;39.90;29.63;;;;;;;6.05;100.00;102285.53;5284254;28;20025;-73
2022/11/30 08:36:50;;;;;;;37.33;27.60;;;;;;;6.06;100.00;102286.44;5266454;28;20028;-72
2022/11/30 08:39:22;;;;;;;;;;;;;;;6.29;100.00;102297.44;5282512;28;20035;-74
2022/11/30 08:41:53;;;;;;;45.15;28.40;;;;;;;6.25;100.00;102290.41;5281934;28;19924;-73
2022/11/30 08:44:24;;;;;;;38.20;28.60;;;;;;;6.26;100.00;102293.03;5283793;28;20046;-73
2022/11/30 08:46:56;;;;;;;41.27;27.97;;;;;;;6.27;100.00;102302.59;5266020;28;20455;-73
2022/11/30 08:49:27;;;;;;;36.50;26.90;;;;;;;6.41;100.00;102305.59;5283872;28;20036;-73
2022/11/30 08:51:59;;;;;;;32.97;25.77;;;;;;;6.46;100.00;102298.81;5265350;28;20028;-76
2022/11/30 08:54:30;;;;;;;33.30;25.70;;;;;;;6.41;100.00;102303.00;5284242;28;20055;-73
2022/11/30 08:57:01;;;;;;;33.87;25.87;;;;;;;6.26;100.00;102307.72;5283540;28;20393;-72
2022/11/30 08:59:33;;;;;;;30.37;23.37;;;;;;;6.30;100.00;102294.03;5283853;28;20440;-73
2022/11/30 09:02:04;;;;;;;33.93;25.00;;;;;;;6.30;100.00;102302.66;5265881;28;20027;-75
2022/11/30 09:04:36;;;;;;;30.70;24.00;;;;;;;6.66;100.00;102304.53;5265730;28;20051;-71
2022/11/30 09:07:08;;;;;;;35.33;26.47;;;;;;;6.91;100.00;102306.09;5283388;28;20055;-74
2022/11/30 09:09:39;;;;;;;32.75;24.75;;;;;;;7.33;100.00;102308.91;5265356;28;20029;-73
2022/11/30 09:12:11;;;;;;;36.37;24.53;;;;;;;7.64;100.00;102313.13;5283955;28;20027;-72
2022/11/30 09:14:44;;;;;;;27.90;22.43;;;;;;;7.85;100.00;102321.38;5283677;28;20033;-73
2022/11/30 09:17:15;;;;;;;26.73;21.67;;;;;;;8.28;100.00;102324.09;5283521;28;20025;-73
2022/11/30 09:19:46;;;;;;;23.83;20.70;;;;;;;8.24;100.00;102321.38;5265760;28;20058;-74
2022/11/30 09:22:18;;;;;;;24.33;20.73;;;;;;;8.36;100.00;102327.72;5284124;28;20032;-74
2022/11/30 09:24:49;;;;;;;23.40;19.87;;;;;;;8.47;100.00;102325.38;5283808;28;20025;-74
2022/11/30 09:27:21;;;;;;;24.90;20.53;;;;;;;8.33;100.00;102327.66;5283671;28;20039;-73
2022/11/30 09:29:52;;;;;;;23.90;19.20;;;;;;;8.37;100.00;102326.88;5265410;28;20021;-74
2022/11/30 09:32:23;;;;;;;24.50;20.30;;;;;;;8.73;100.00;102323.31;5283224;28;20036;-74
2022/11/30 09:34:55;;;;;;;21.90;19.00;;;;;;;8.93;100.00;102333.19;5283677;28;20044;-74
2022/11/30 09:37:26;;;;;;;24.43;19.60;;;;;;;9.12;100.00;102326.63;5283887;28;20028;-74
2022/11/30 09:39:58;;;;;;;22.37;19.47;;;;;;;8.78;98.82;102332.94;5284000;28;20032;-74
2022/11/30 09:43:09;;;;;;;24.10;18.80;;;;;;;8.93;100.00;102333.19;5283820;28;20054;-74
2022/11/30 09:45:49;;;;;;;22.17;19.20;;;;;;;8.89;100.00;102327.06;5265760;28;20017;-74
2022/11/30 09:48:47;;;;;;;21.75;19.02;;;;;;;8.93;100.00;102336.69;5248675;28;20024;-73
2022/11/30 09:51:43;;;;;;;24.33;19.10;;;;;;;8.83;100.00;102333.88;5283560;28;20447;-73
2022/11/30 09:54:36;;;;;;;22.70;19.73;;;;;;;8.67;100.00;102327.50;5283304;28;20029;-74
2022/11/30 09:57:26;;;;;;;;;;;;;;;9.16;100.00;102332.75;5283813;28;20020;-74
2022/11/30 10:00:00;;;;;;;22.58;20.25;;;;;;;9.29;98.33;102320.00;5283150;28;20335;-74
2022/11/30 10:02:37;;;;;;;22.50;18.65;;;;;;;9.42;95.78;102331.47;5265686;28;20030;-74
2022/11/30 10:05:25;;;;;;;22.77;19.77;;;;;;;9.51;96.23;102333.34;5287081;28;20417;-74
2022/11/30 10:08:09;;;;;;;23.70;19.63;;;;;;;8.93;96.87;102333.19;5287737;28;20459;-74
2022/11/30 10:10:50;;;;;;;23.83;20.23;;;;;;;8.52;98.61;102328.09;5287312;28;20094;-75
2022/11/30 10:13:49;;;;;;;23.40;20.92;;;;;;;8.54;100.00;102332.44;5287026;28;20029;-73
2022/11/30 10:16:48;;;;;;;25.42;21.35;;;;;;;8.29;100.00;102323.25;5286919;28;20108;-75
2022/11/30 10:20:00;;;;;;;25.27;22.58;;;;;;;8.14;100.00;102322.91;5287159;28;20057;-74
2022/11/30 10:22:40;;;;;;;26.88;21.13;;;;;;;8.17;100.00;102325.56;5287137;28;20063;-74
2022/11/30 10:25:24;;;;;;;26.58;21.13;;;;;;;8.67;100.00;102330.97;5287162;28;20115;-74
2022/11/30 10:28:17;;;;;;;26.20;21.58;;;;;;;8.94;100.00;102319.38;5286726;28;20028;-74
2022/11/30 10:30:49;;;;;;;26.42;21.73;;;;;;;9.35;100.00;102314.00;5287749;28;20394;-74
2022/11/30 10:33:29;;;;;;;28.43;20.63;;;;;;;10.03;96.44;102315.06;5286706;28;20157;-73
2022/11/30 10:36:22;;;;;;;23.33;20.23;;;;;;;10.30;90.97;102317.13;5286787;28;20032;-74
2022/11/30 10:39:02;;;;;;;24.10;18.15;;;;;;;10.98;88.69;102309.25;5286827;28;20047;-74
2022/11/30 10:41:45;;;;;;;19.55;17.52;;;;;;;10.94;85.97;102311.81;5286710;28;20131;-74
2022/11/30 10:44:33;;;;;;;20.92;18.55;;;;;;;11.47;86.84;102314.94;5286487;28;20033;-75
2022/11/30 10:47:14;;;;;;;21.38;18.63;;;;;;;11.63;83.92;102310.69;5286783;28;20034;-74
2022/11/30 10:49:51;;;;;;;19.52;17.33;;;;;;;12.00;80.58;102319.66;5286862;28;20024;-74
2022/11/30 10:52:35;;;;;;;17.98;16.08;;;;;;;11.91;76.88;102314.34;5286262;28;20070;-73
2022/11/30 10:55:22;;;;;;;16.17;14.48;;;;;;;11.41;75.20;102310.50;5286751;28;20070;-75
2022/11/30 10:58:24;;;;;;;19.85;14.77;;;;;;;11.35;81.06;102306.97;5286018;28;20358;-74
2022/11/30 11:01:10;;;;;;;15.63;14.07;;;;;;;10.94;80.16;102298.78;5250136;28;20071;-74
2022/11/30 11:03:41;;;;;;;23.48;16.63;;;;;;;10.68;82.61;102301.13;5287326;28;20048;-75
2022/11/30 11:06:19;;;;;;;15.40;13.70;;;;;;;10.50;78.95;102298.31;5286307;28;20121;-75
2022/11/30 11:08:51;;;;;;;17.25;15.43;;;;;;;10.46;80.35;102301.75;5269665;28;20083;-73
2022/11/30 11:11:37;;;;;;;19.37;15.77;;;;;;;10.70;81.88;102301.16;5290301;28;20113;-74
2022/11/30 11:14:16;;;;;;;17.83;14.75;;;;;;;10.67;77.74;102295.88;5289008;28;20363;-73
2022/11/30 11:16:52;;;;;;;17.30;15.50;;;;;;;10.47;78.57;102296.53;5286874;28;20021;-74
2022/11/30 11:19:33;;;;;;;18.70;15.43;;;;;;;10.07;79.11;102298.59;5268790;28;20051;-74
2022/11/30 11:22:12;;;;;;;18.27;15.43;;;;;;;10.25;80.72;102299.72;5285493;28;20468;-74
2022/11/30 11:24:45;;;;;;;19.00;15.65;;;;;;;10.06;80.87;102295.97;5285909;28;20027;-74
2022/11/30 11:27:27;;;;;;;20.77;16.70;;;;;;;10.38;81.19;102289.50;5285802;28;20028;-74
2022/11/30 11:30:27;;;;;;;20.40;17.20;;;;;;;10.22;82.55;102290.09;5268099;28;20027;-74
2022/11/30 11:33:19;;;;;;;20.45;16.20;;;;;;;9.86;84.00;102291.38;5286046;28;20026;-74
2022/11/30 11:36:05;;;;;;;18.45;15.25;;;;;;;9.77;85.12;102292.13;5285443;28;20058;-74
2022/11/30 11:38:47;;;;;;;19.25;16.80;;;;;;;9.40;85.25;102288.94;5285316;28;20029;-77
2022/11/30 11:41:36;;;;;;;19.17;15.75;;;;;;;9.61;86.34;102292.72;5285698;28;20358;-73
2022/11/30 11:44:10;;;;;;;20.67;17.73;;;;;;;9.35;86.65;102289.72;5268631;28;20523;-74
2022/11/30 11:46:57;;;;;;;19.88;17.05;;;;;;;9.49;87.82;102289.06;5285621;28;20047;-74
2022/11/30 11:49:33;;;;;;;20.55;17.77;;;;;;;9.57;86.57;102294.41;5285635;28;20333;-74